^^
Station Historical Data
Daily Summary for February 18, 2017 Units:  Metric    English   Both
« Previous Day
Next Day »
Daily Weekly Monthly Yearly Custom
  High: Low: Average:
Temperature: 34.8 °C 21.2 °C 26.4 °C
Dew Point: 13.2 °C 10.1 °C 11.6 °C
Humidity: 51% 27% 41%
Wind Speed: 35.2km/h 7.9km/h 19.8km/h
Wind Gust: 46.7km/h - -
Wind- - SSW
Pressure: 1008.4 hPa 1003.9 hPa -
Precipitation: 0 mm    
Historical Graphs
 
 
Tabular Data for February 18, 2017
Time Temperature Dew Point Pressure Wind Wind Speed Wind Gust Humidity Rainfall Rate (Hourly) solar Conditions
00:04 25.8 °C 11.9 °C 1007.3 hPa SSW 17.7 km/h 25.7 km/h 42% 0 mm 0.0 W/m2
00:09 25.7 °C 11.8 °C 1007.3 hPa SSW 17.7 km/h 25.7 km/h 42% 0 mm 0.0 W/m2
00:19 25.6 °C 11.7 °C 1007.7 hPa SSW 19.5 km/h 30.6 km/h 42% 0 mm 0.0 W/m2
00:24 25.4 °C 11.9 °C 1007.7 hPa SSW 20.9 km/h 25.7 km/h 43% 0 mm 0.0 W/m2
00:29 25.3 °C 11.8 °C 1007.7 hPa SSW 22.7 km/h 29 km/h 43% 0 mm 0.0 W/m2
00:35 25.2 °C 11.7 °C 1007.3 hPa SSW 22.7 km/h 29 km/h 43% 0 mm 0.0 W/m2
00:45 25 °C 11.9 °C 1007.3 hPa SSW 20.9 km/h 27.4 km/h 44% 0 mm 0.0 W/m2
00:50 24.9 °C 11.8 °C 1007.3 hPa SSW 19.5 km/h 25.7 km/h 44% 0 mm 0.0 W/m2
00:55 24.8 °C 11.7 °C 1007.3 hPa SSW 22.7 km/h 25.7 km/h 44% 0 mm 0.0 W/m2
01:00 24.7 °C 11.6 °C 1007.3 hPa SSW 19.5 km/h 27.4 km/h 44% 0 mm 0.0 W/m2
01:10 24.5 °C 11.4 °C 1007.3 hPa SSW 13 km/h 24.1 km/h 44% 0 mm 0.0 W/m2
01:20 24.4 °C 11.7 °C 1007.3 hPa SSW 25.9 km/h 27.4 km/h 45% 0 mm 0.0 W/m2
01:25 24.3 °C 11.6 °C 1007.3 hPa SSW 30.6 km/h 30.6 km/h 45% 0 mm 0.0 W/m2
01:30 24.3 °C 11.6 °C 1007.3 hPa SSW 22.7 km/h 24.1 km/h 45% 0 mm 0.0 W/m2
01:40 24.3 °C 11.6 °C 1007 hPa SSW 16.3 km/h 24.1 km/h 45% 0 mm 0.0 W/m2
01:45 24.2 °C 11.5 °C 1007 hPa SSW 22.7 km/h 27.4 km/h 45% 0 mm 0.0 W/m2
01:50 24.2 °C 11.5 °C 1007 hPa SSW 24.1 km/h 25.7 km/h 45% 0 mm 0.0 W/m2
01:55 24.1 °C 11.4 °C 1007 hPa SSW 24.1 km/h 27.4 km/h 45% 0 mm 0.0 W/m2
02:00 24.1 °C 11.4 °C 1007 hPa SSW 19.5 km/h 29 km/h 45% 0 mm 0.0 W/m2
02:10 23.9 °C 10.9 °C 1007 hPa SSW 20.9 km/h 25.7 km/h 44% 0 mm 0.0 W/m2
02:15 23.9 °C 11.2 °C 1007 hPa SSW 20.9 km/h 24.1 km/h 45% 0 mm 0.0 W/m2
02:20 23.8 °C 11.2 °C 1007 hPa SSW 14.3 km/h 22.5 km/h 45% 0 mm 0.0 W/m2
02:30 23.6 °C 11 °C 1007 hPa SW 20.9 km/h 25.7 km/h 45% 0 mm 0.0 W/m2
02:40 23.4 °C 10.8 °C 1007 hPa SW 19.5 km/h 20.9 km/h 45% 0 mm 0.0 W/m2
02:45 23.4 °C 10.8 °C 1007 hPa SW 16.3 km/h 24.1 km/h 45% 0 mm 0.0 W/m2
02:50 23.3 °C 10.7 °C 1007 hPa SW 19.5 km/h 24.1 km/h 45% 0 mm 0.0 W/m2
02:55 23.2 °C 10.6 °C 1007 hPa SW 22.7 km/h 22.7 km/h 45% 0 mm 0.0 W/m2
03:00 23.1 °C 10.5 °C 1007 hPa SW 19.5 km/h 25.7 km/h 45% 0 mm 0.0 W/m2
03:10 23.1 °C 10.5 °C 1007 hPa SW 16.3 km/h 24.1 km/h 45% 0 mm 0.0 W/m2
03:15 23 °C 10.4 °C 1007 hPa SW 19.5 km/h 22.5 km/h 45% 0 mm 0.0 W/m2
03:20 22.9 °C 10.3 °C 1007 hPa SW 27.4 km/h 27.4 km/h 45% 0 mm 0.0 W/m2
03:30 22.7 °C 10.5 °C 1006.7 hPa SSW 27.4 km/h 27.4 km/h 46% 0 mm 0.0 W/m2
03:35 22.7 °C 10.2 °C 1006.7 hPa SSW 20.9 km/h 29 km/h 45% 0 mm 0.0 W/m2
03:40 22.6 °C 10.1 °C 1006.7 hPa SSW 22.7 km/h 27.4 km/h 45% 0 mm 0.0 W/m2
03:45 22.5 °C 10.3 °C 1006.7 hPa SSW 16.3 km/h 20.9 km/h 46% 0 mm 0.0 W/m2
03:50 22.4 °C 10.2 °C 1006.7 hPa SSW 17.7 km/h 25.7 km/h 46% 0 mm 0.0 W/m2
03:55 22.4 °C 10.2 °C 1007 hPa SSW 17.7 km/h 22.5 km/h 46% 0 mm 0.0 W/m2
04:00 22.3 °C 10.1 °C 1007 hPa SSW 19.5 km/h 22.5 km/h 46% 0 mm 0.0 W/m2
04:06 22.2 °C 10.4 °C 1006.7 hPa SSW 16.3 km/h 22.5 km/h 47% 0 mm 0.0 W/m2
04:16 22.1 °C 10.3 °C 1007 hPa SSW 19.5 km/h 24.1 km/h 47% 0 mm 0.0 W/m2
04:21 21.9 °C 10.4 °C 1006.7 hPa SSW 20.9 km/h 24.1 km/h 48% 0 mm 0.0 W/m2
04:31 21.7 °C 10.2 °C 1006.7 hPa SSW 20.9 km/h 24.1 km/h 48% 0 mm 0.0 W/m2
04:46 21.6 °C 10.4 °C 1007 hPa SSW 11.1 km/h 16.1 km/h 49% 0 mm 0.0 W/m2
04:51 21.5 °C 10.6 °C 1007 hPa SSW 11.1 km/h 16.1 km/h 50% 0 mm 0.0 W/m2
05:01 21.4 °C 10.5 °C 1007 hPa SSW 13 km/h 17.7 km/h 50% 0 mm 0.0 W/m2
05:06 21.4 °C 10.5 °C 1007.3 hPa SSW 14.3 km/h 19.3 km/h 50% 0 mm 0.0 W/m2
05:11 21.4 °C 10.5 °C 1007.3 hPa SSW 11.1 km/h 16.1 km/h 50% 0 mm 0.0 W/m2
05:16 21.4 °C 10.8 °C 1007 hPa SSW 14.3 km/h 16.1 km/h 51% 0 mm 0.0 W/m2
05:21 21.3 °C 10.8 °C 1007.3 hPa SSW 11.1 km/h 16.1 km/h 51% 0 mm 0.0 W/m2
05:26 21.3 °C 10.8 °C 1007.3 hPa SSW 11.1 km/h 17.7 km/h 51% 0 mm 0.0 W/m2
05:31 21.4 °C 10.8 °C 1007.3 hPa SSW 13 km/h 16.1 km/h 51% 0 mm 0.0 W/m2
05:36 21.4 °C 10.8 °C 1007.3 hPa SSW 13 km/h 16.1 km/h 51% 0 mm 0.0 W/m2
05:46 21.4 °C 10.8 °C 1007.3 hPa SSW 14.3 km/h 16.1 km/h 51% 0 mm 0.0 W/m2
05:51 21.3 °C 10.8 °C 1007.3 hPa SSW 13 km/h 16.1 km/h 51% 0 mm 0.0 W/m2
05:56 21.3 °C 10.8 °C 1007.3 hPa SSW 11.1 km/h 16.1 km/h 51% 0 mm 0.0 W/m2
06:01 21.3 °C 10.8 °C 1007.3 hPa SSW 14.3 km/h 16.1 km/h 51% 0 mm 0.0 W/m2
06:11 21.2 °C 10.4 °C 1007.3 hPa SSW 11.1 km/h 14.5 km/h 50% 0 mm 0.0 W/m2
06:18 21.2 °C 10.4 °C 1007.3 hPa SSW 9.7 km/h 12.9 km/h 50% 0 mm 0.0 W/m2
06:24 21.2 °C 10.4 °C 1007.3 hPa SSW 16.3 km/h 17.7 km/h 50% 0 mm 0.0 W/m2
06:25 21.2 °C 10.4 °C 1007.3 hPa SSW 14.3 km/h 17.7 km/h 50% 0 mm 0.0 W/m2
06:41 21.2 °C 10.4 °C 1007.3 hPa SSW 9.7 km/h 12.9 km/h 50% 0 mm 5.0 W/m2
06:51 21.2 °C 10.4 °C 1007.7 hPa SSW 11.1 km/h 12.9 km/h 50% 0 mm 16.0 W/m2
07:06 21.3 °C 10.5 °C 1007.7 hPa SSW 11.1 km/h 14.5 km/h 50% 0 mm 37.0 W/m2
07:15 21.4 °C 10.5 °C 1007.7 hPa SSW 9.7 km/h 14.5 km/h 50% 0 mm 42.0 W/m2
07:26 21.6 °C 10.7 °C 1007.7 hPa SSW 13 km/h 14.5 km/h 50% 0 mm 70.0 W/m2
07:34 21.7 °C 10.8 °C 1007.7 hPa SSW 11.1 km/h 12.9 km/h 50% 0 mm 128.0 W/m2
07:45 21.9 °C 10.7 °C 1007.7 hPa SSW 13 km/h 14.5 km/h 49% 0 mm 146.0 W/m2
07:51 22.2 °C 11 °C 1008 hPa SSW 11.1 km/h 17.7 km/h 49% 0 mm 190.0 W/m2
07:56 22.3 °C 10.8 °C 1008 hPa SSW 22.7 km/h 22.7 km/h 48% 0 mm 188.0 W/m2
08:05 22.5 °C 10.9 °C 1008 hPa SSW 14.3 km/h 16.1 km/h 48% 0 mm 244.0 W/m2
08:11 22.7 °C 11.1 °C 1008.4 hPa SSW 7.9 km/h 16.1 km/h 48% 0 mm 153.0 W/m2
08:27 22.9 °C 11.3 °C 1008.4 hPa SSW 13 km/h 16.1 km/h 48% 0 mm 251.0 W/m2
08:39 23.2 °C 11.3 °C 1008.4 hPa SSW 14.3 km/h 19.3 km/h 47% 0 mm 199.0 W/m2
08:54 23.6 °C 11.3 °C 1008.4 hPa SSW 17.7 km/h 20.9 km/h 46% 0 mm 390.0 W/m2
09:01 24.1 °C 11.4 °C 1008 hPa SSW 11.1 km/h 17.7 km/h 45% 0 mm 431.0 W/m2
09:23 24.4 °C 11.7 °C 1008 hPa SSW 16.3 km/h 20.9 km/h 45% 0 mm 506.0 W/m2
09:38 24.9 °C 11.5 °C 1008 hPa SW 14.3 km/h 22.5 km/h 43% 0 mm 436.0 W/m2
09:52 25.5 °C 11.6 °C 1008 hPa SW 13 km/h 19.3 km/h 42% 0 mm 582.0 W/m2
10:02 25.9 °C 11.3 °C 1008 hPa SW 14.3 km/h 19.3 km/h 40% 0 mm 638.0 W/m2
10:07 26.5 °C 11.4 °C 1008 hPa SW 13 km/h 19.3 km/h 39% 0 mm 613.0 W/m2
10:23 27.1 °C 11.6 °C 1008 hPa SW 14.3 km/h 19.3 km/h 38% 0 mm 705.0 W/m2
10:27 27.6 °C 11.6 °C 1008 hPa SW 13 km/h 22.5 km/h 37% 0 mm 733.0 W/m2
10:36 27.7 °C 11.7 °C 1008 hPa SW 16.3 km/h 19.3 km/h 37% 0 mm 668.0 W/m2
10:42 27.9 °C 11.4 °C 1008 hPa SW 16.3 km/h 20.9 km/h 36% 0 mm 633.0 W/m2
10:51 28.2 °C 11.7 °C 1007.7 hPa SW 17.7 km/h 22.5 km/h 36% 0 mm 696.0 W/m2
10:59 28.9 °C 11.9 °C 1007.7 hPa SW 11.1 km/h 20.9 km/h 35% 0 mm 823.0 W/m2
12:15 30.3 °C 11.8 °C 1007.3 hPa SW 16.3 km/h 27.4 km/h 32% 0 mm 654.0 W/m2
12:46 31.4 °C 11.7 °C 1007 hPa SW 22.7 km/h 27.4 km/h 30% 0 mm 647.0 W/m2
12:54 32.6 °C 12.3 °C 1006.7 hPa SSW 22.7 km/h 29 km/h 29% 0 mm 912.0 W/m2
13:15 33.2 °C 11.7 °C 1006.3 hPa SSW 28.8 km/h 32.2 km/h 27% 0 mm 853.0 W/m2
13:25 32.9 °C 12 °C 1006.3 hPa SSW 25.9 km/h 37 km/h 28% 0 mm 874.0 W/m2
13:41 33.6 °C 12 °C 1006 hPa SSW 24.1 km/h 37 km/h 27% 0 mm 875.0 W/m2
13:49 34.3 °C 12.6 °C 1005.6 hPa SSW 32 km/h 35.4 km/h 27% 0 mm 802.0 W/m2
14:04 34.4 °C 12.7 °C 1005.6 hPa SSW 28.8 km/h 33.8 km/h 27% 0 mm 889.0 W/m2
14:25 34.5 °C 12.8 °C 1005.3 hPa SSW 24.1 km/h 40.2 km/h 27% 0 mm 895.0 W/m2
14:34 34.1 °C 12.4 °C 1005.3 hPa SW 30.6 km/h 43.5 km/h 27% 0 mm 810.0 W/m2
14:44 34.3 °C 13.2 °C 1005.3 hPa SSW 24.1 km/h 37 km/h 28% 0 mm 844.0 W/m2
15:06 34.7 °C 13 °C 1005 hPa SSW 28.8 km/h 37 km/h 27% 0 mm 824.0 W/m2
15:21 34.8 °C 13 °C 1004.6 hPa SSW 27.4 km/h 35.4 km/h 27% 0 mm 803.0 W/m2
15:29 34.5 °C 12.8 °C 1004.6 hPa SW 35.2 km/h 41.8 km/h 27% 0 mm 670.0 W/m2
15:46 34.7 °C 13 °C 1004.3 hPa SW 30.6 km/h 37 km/h 27% 0 mm 585.0 W/m2
16:01 34.1 °C 12.4 °C 1004.3 hPa SW 30.6 km/h 40.2 km/h 27% 0 mm 425.0 W/m2
16:15 34.2 °C 13.1 °C 1004.3 hPa SW 27.4 km/h 40.2 km/h 28% 0 mm 700.0 W/m2
16:25 34.1 °C 13 °C 1004.3 hPa SW 27.4 km/h 46.7 km/h 28% 0 mm 703.0 W/m2
16:37 33.7 °C 12.7 °C 1004.3 hPa SSW 28.8 km/h 40.2 km/h 28% 0 mm 654.0 W/m2
16:42 33.7 °C 12.7 °C 1004.3 hPa SSW 24.1 km/h 35.4 km/h 28% 0 mm 497.0 W/m2
16:44 33.6 °C 12.6 °C 1004.3 hPa SW 32 km/h 37 km/h 28% 0 mm 563.0 W/m2
16:58 33.4 °C 12.4 °C 1004.3 hPa SSW 27.4 km/h 37 km/h 28% 0 mm 527.0 W/m2
17:08 33.3 °C 12.3 °C 1004.3 hPa SSW 24.1 km/h 38.6 km/h 28% 0 mm 504.0 W/m2
17:14 33.3 °C 12.3 °C 1004.3 hPa SSW 20.9 km/h 33.8 km/h 28% 0 mm 392.0 W/m2
17:22 33.3 °C 12.9 °C 1003.9 hPa SSW 30.6 km/h 33.8 km/h 29% 0 mm 443.0 W/m2
17:29 33.1 °C 12.7 °C 1003.9 hPa SSW 22.7 km/h 35.4 km/h 29% 0 mm 385.0 W/m2
17:34 33 °C 12.6 °C 1004.3 hPa South 35.2 km/h 38.6 km/h 29% 0 mm 352.0 W/m2
17:39 32.9 °C 13 °C 1004.3 hPa SSW 28.8 km/h 35.4 km/h 30% 0 mm 304.0 W/m2
17:49 32.6 °C 12.8 °C 1004.3 hPa SSW 25.9 km/h 33.8 km/h 30% 0 mm 290.0 W/m2
17:59 32.4 °C 13.1 °C 1004.3 hPa SSW 28.8 km/h 35.4 km/h 31% 0 mm 262.0 W/m2
18:16 32.1 °C 12.8 °C 1004.6 hPa SSW 27.4 km/h 35.4 km/h 31% 0 mm 223.0 W/m2
18:30 31.3 °C 13.1 °C 1004.6 hPa SSW 25.9 km/h 38.6 km/h 33% 0 mm 151.0 W/m2
18:35 30.9 °C 13.2 °C 1004.6 hPa SSW 17.7 km/h 29 km/h 34% 0 mm 83.0 W/m2
18:51 30.4 °C 13.2 °C 1005 hPa South 17.7 km/h 32.2 km/h 35% 0 mm 30.0 W/m2
19:00 29.9 °C 12.8 °C 1005.3 hPa SSW 27.4 km/h 33.8 km/h 35% 0 mm 18.0 W/m2
19:22 29.4 °C 12.8 °C 1005.3 hPa SSW 17.7 km/h 29 km/h 36% 0 mm 11.0 W/m2
19:30 29 °C 12.8 °C 1005.6 hPa SSW 24.1 km/h 29 km/h 37% 0 mm 0.0 W/m2
19:40 28.7 °C 12.6 °C 1005.6 hPa SSW 27.4 km/h 32.2 km/h 37% 0 mm 0.0 W/m2
19:54 28.6 °C 12.9 °C 1006 hPa SSW 14.3 km/h 32.2 km/h 38% 0 mm 0.0 W/m2
20:03 28.3 °C 12.6 °C 1006.3 hPa SSW 16.3 km/h 27.4 km/h 38% 0 mm 0.0 W/m2
20:07 28.2 °C 12.5 °C 1006.3 hPa SSW 22.7 km/h 29 km/h 38% 0 mm 0.0 W/m2
20:10 28 °C 12.4 °C 1006.3 hPa SSW 24.1 km/h 32.2 km/h 38% 0 mm 0.0 W/m2
20:19 27.8 °C 12.6 °C 1006.7 hPa South 30.6 km/h 32.2 km/h 39% 0 mm 0.0 W/m2
20:30 27.4 °C 12.2 °C 1007 hPa SSW 20.9 km/h 29 km/h 39% 0 mm 0.0 W/m2
20:38 27.2 °C 12.4 °C 1007 hPa SSW 25.9 km/h 29 km/h 40% 0 mm 0.0 W/m2
20:40 27.1 °C 12.3 °C 1007 hPa SSW 19.5 km/h 25.7 km/h 40% 0 mm 0.0 W/m2
20:47 27.1 °C 12.3 °C 1007 hPa SSW 17.7 km/h 22.5 km/h 40% 0 mm 0.0 W/m2
20:50 27 °C 12.2 °C 1007 hPa SSW 19.5 km/h 27.4 km/h 40% 0 mm 0.0 W/m2
Canyon Roadhouse, Fishriver Canyon, Namibia
Compliments of Weather Underground - 2.25 mb